Time;durP1;ratioP1;P1;durP2;ratioP2;P2;SDS_P1;SDS_P2;PMS_P1;PMS_P2;Temp;Humidity;BMP_temperature;BMP_pressure;BME280_temperature;BME280_humidity;BME280_pressure;Samples;Min_cycle;Max_cycle;Signal;HPM_P1;HPM_P2
2024/02/10 00:02:10;;;;;;;;;;;;;;;21.78;27.89;97079.56;5018822;28;1557;-78
2024/02/10 00:04:38;;;;;;;;;;;;;;;21.42;27.88;97088.72;4983161;28;1472;-78
2024/02/10 00:07:07;;;;;;;;;;;;;;;21.12;28.54;97084.63;4948939;29;1003;-78
2024/02/10 00:09:33;;;;;;;;;;;;;;;21.14;28.50;97089.81;4947233;29;987;-78
2024/02/10 00:11:59;;;;;;;;;;;;;;;21.42;28.41;97085.09;4949444;29;1893;-78
2024/02/10 00:14:26;;;;;;;;;;;;;;;21.66;28.05;97088.97;4948268;29;936;-78
2024/02/10 00:16:53;;;;;;;;;;;;;;;21.95;27.68;97085.72;4948820;29;1980;-79
2024/02/10 00:19:20;;;;;;;;;;;;;;;21.81;27.63;97087.13;4963499;29;966;-78
2024/02/10 00:21:46;;;;;;;;;;;;;;;21.78;27.73;97085.22;4964849;28;1287;-78
2024/02/10 00:24:11;;;;;;;;;;;;;;;21.66;27.89;97077.66;4909723;29;998;-78
2024/02/10 00:26:37;;;;;;;;;;;;;;;21.50;28.18;97081.53;4926846;29;918;-78
2024/02/10 00:29:03;;;;;;;;;;;;;;;21.63;27.71;97078.56;4925229;29;1353;-79
2024/02/10 00:31:29;;;;;;;;;;;;;;;21.14;28.57;97087.78;4927185;29;950;-78
2024/02/10 00:33:57;;;;;;;;;;;;;;;21.38;28.81;97078.81;4924976;29;1647;-79
2024/02/10 00:36:23;;;;;;;;;;;;;;;21.64;28.26;97080.13;4926351;29;1872;-78
2024/02/10 00:38:48;;;;;;;;;;;;;;;21.61;28.31;97080.31;4971799;28;1081;-78
2024/02/10 00:41:14;;;;;;;;;;;;;;;21.63;28.44;97072.91;4984407;28;1161;-78
2024/02/10 00:43:42;;;;;;;;;;;;;;;21.22;28.98;97072.09;4981267;28;1386;-78
2024/02/10 00:46:11;;;;;;;;;;;;;;;21.21;28.51;97075.41;4952055;28;919;-78
2024/02/10 00:48:39;;;;;;;;;;;;;;;21.52;28.36;97078.22;4981501;28;1079;-78
2024/02/10 00:51:05;;;;;;;;;;;;;;;21.83;28.16;97086.66;4968349;28;958;-79
2024/02/10 00:53:39;;;;;;;;;;;;;;;21.79;28.06;97078.28;4964480;28;1464;-79
2024/02/10 00:56:14;;;;;;;;;;;;;;;21.88;27.97;97074.69;5001887;28;1898;-78
2024/02/10 00:58:44;;;;;;;;;;;;;;;21.66;28.30;97083.31;4986989;28;1620;-78
2024/02/10 01:01:12;;;;;;;;;;;;;;;21.43;28.64;97081.03;4953525;28;1850;-78
2024/02/10 01:03:46;;;;;;;;;;;;;;;21.52;28.14;97076.19;4949372;28;1134;-79
2024/02/10 01:06:12;;;;;;;;;;;;;;;21.29;29.12;97071.81;4984192;28;962;-78
2024/02/10 01:08:40;;;;;;;;;;;;;;;21.69;28.43;97073.88;4926705;29;1207;-79
2024/02/10 01:11:10;;;;;;;;;;;;;;;21.67;28.27;97067.91;4893435;29;1397;-79
2024/02/10 01:13:36;;;;;;;;;;;;;;;21.83;27.89;97070.44;4870275;29;1032;-78
2024/02/10 01:16:01;;;;;;;;;;;;;;;21.96;27.98;97063.84;4888782;29;1972;-78
2024/02/10 01:18:27;;;;;;;;;;;;;;;21.78;28.12;97064.63;4885787;29;1064;-78
2024/02/10 01:20:52;;;;;;;;;;;;;;;21.67;28.05;97067.91;4896519;29;1703;-79
2024/02/10 01:23:18;;;;;;;;;;;;;;;21.26;28.37;97061.44;4870239;29;1166;-78
2024/02/10 01:25:43;;;;;;;;;;;;;;;21.75;28.45;97069.16;4872855;29;986;-78
2024/02/10 01:28:10;;;;;;;;;;;;;;;21.71;28.46;97068.53;4870866;29;1077;-79
2024/02/10 01:30:36;;;;;;;;;;;;;;;21.65;28.49;97061.09;4879062;29;1448;-79
2024/02/10 01:33:01;;;;;;;;;;;;;;;21.81;28.28;97061.63;4889867;29;1426;-79
2024/02/10 01:35:27;;;;;;;;;;;;;;;21.45;28.47;97062.34;4905954;29;1899;-78
2024/02/10 01:37:52;;;;;;;;;;;;;;;21.52;28.48;97056.38;4906230;29;1083;-79
2024/02/10 01:40:18;;;;;;;;;;;;;;;21.12;28.93;97049.91;4874506;29;1524;-79
2024/02/10 01:42:44;;;;;;;;;;;;;;;21.31;28.58;97048.75;4935460;29;950;-78
2024/02/10 01:45:13;;;;;;;;;;;;;;;21.61;28.61;97058.44;4926044;28;935;-79
2024/02/10 01:47:42;;;;;;;;;;;;;;;21.71;28.36;97056.41;4947611;28;1016;-79
2024/02/10 01:50:08;;;;;;;;;;;;;;;21.72;28.27;97063.66;4946579;28;1304;-78
2024/02/10 01:52:37;;;;;;;;;;;;;;;21.69;28.37;97059.72;4949381;28;1387;-78
2024/02/10 01:55:03;;;;;;;;;;;;;;;21.68;28.36;97063.00;4948861;28;974;-78
2024/02/10 01:57:29;;;;;;;;;;;;;;;21.32;28.58;97053.94;4966627;28;1979;-78
2024/02/10 01:59:54;;;;;;;;;;;;;;;21.32;28.74;97059.59;4970386;28;1350;-78
2024/02/10 02:02:20;;;;;;;;;;;;;;;21.36;28.92;97053.81;5003647;28;910;-79
2024/02/10 02:04:45;;;;;;;;;;;;;;;21.74;28.40;97056.25;5001108;28;869;-78
2024/02/10 02:07:11;;;;;;;;;;;;;;;21.87;27.96;97041.97;4987338;28;925;-78
2024/02/10 02:09:36;;;;;;;;;;;;;;;21.84;28.22;97049.34;5001811;28;971;-78
2024/02/10 02:12:07;;;;;;;;;;;;;;;21.37;28.90;97046.09;5022470;28;1522;-78
2024/02/10 02:14:47;;;;;;;;;;;;;;;21.25;28.67;97040.06;5021050;28;865;-79
2024/02/10 02:17:12;;;;;;;;;;;;;;;21.21;28.81;97039.41;5007643;28;1958;-78
2024/02/10 02:19:42;;;;;;;;;;;;;;;21.62;28.38;97037.38;5004654;28;1275;-78
2024/02/10 02:22:10;;;;;;;;;;;;;;;21.72;28.34;97041.78;5021270;28;1439;-78
2024/02/10 02:24:36;;;;;;;;;;;;;;;22.05;27.76;97041.19;5020728;28;894;-78
2024/02/10 02:27:02;;;;;;;;;;;;;;;21.84;27.91;97049.34;5006246;28;1179;-79
2024/02/10 02:29:28;;;;;;;;;;;;;;;21.53;28.40;97045.84;5021111;28;900;-78
2024/02/10 02:31:53;;;;;;;;;;;;;;;21.51;28.08;97042.69;5005706;28;1378;-78
2024/02/10 02:34:22;;;;;;;;;;;;;;;21.61;28.54;97041.47;4988913;28;973;-78
2024/02/10 02:36:48;;;;;;;;;;;;;;;21.76;28.07;97044.47;5006810;28;1906;-78
2024/02/10 02:39:14;;;;;;;;;;;;;;;21.75;28.35;97046.50;5005529;28;835;-78
2024/02/10 02:41:39;;;;;;;;;;;;;;;21.77;28.23;97052.50;5020616;28;1406;-78
2024/02/10 02:44:14;;;;;;;;;;;;;;;21.44;28.45;97043.75;5008127;28;971;-79
2024/02/10 02:46:43;;;;;;;;;;;;;;;21.53;28.14;97057.16;5011463;28;1089;-79
2024/02/10 02:49:08;;;;;;;;;;;;;;;21.71;27.81;97062.88;5024297;28;917;-78
2024/02/10 02:51:35;;;;;;;;;;;;;;;21.57;28.01;97063.47;5025416;28;1399;-78
2024/02/10 02:54:01;;;;;;;;;;;;;;;21.45;28.51;97061.53;5008091;28;1216;-78
2024/02/10 02:56:27;;;;;;;;;;;;;;;21.80;28.26;97060.03;5026527;28;1968;-78
2024/02/10 02:58:54;;;;;;;;;;;;;;;21.85;28.09;97067.13;5024880;28;921;-78
2024/02/10 03:01:23;;;;;;;;;;;;;;;21.49;28.36;97067.81;5014237;28;1507;-79
2024/02/10 03:03:52;;;;;;;;;;;;;;;21.45;28.52;97073.66;5004839;28;893;-78
2024/02/10 03:06:21;;;;;;;;;;;;;;;21.50;28.50;97069.41;5006104;28;897;-78
2024/02/10 03:08:47;;;;;;;;;;;;;;;21.77;28.21;97075.16;5004298;28;1092;-78
2024/02/10 03:11:17;;;;;;;;;;;;;;;22.02;27.94;97084.63;5016655;28;1353;-78
2024/02/10 03:13:52;;;;;;;;;;;;;;;21.89;27.96;97084.78;5023714;28;1159;-78
2024/02/10 03:16:18;;;;;;;;;;;;;;;21.41;28.45;97077.88;5025944;28;1910;-78
2024/02/10 03:18:45;;;;;;;;;;;;;;;21.59;28.14;97094.91;5023625;28;933;-78
2024/02/10 03:21:11;;;;;;;;;;;;;;;21.49;28.45;97090.47;5025863;28;1288;-79
2024/02/10 03:23:37;;;;;;;;;;;;;;;21.69;28.26;97079.53;5023084;28;1045;-78
2024/02/10 03:26:03;;;;;;;;;;;;;;;21.75;28.04;97086.16;5026240;28;858;-78
2024/02/10 03:28:28;;;;;;;;;;;;;;;21.71;28.38;97077.03;5024151;28;1179;-78
2024/02/10 03:30:54;;;;;;;;;;;;;;;21.52;28.33;97072.56;5019082;28;1440;-79
2024/02/10 03:33:19;;;;;;;;;;;;;;;21.57;28.25;97080.44;5014742;28;1791;-79
2024/02/10 03:35:45;;;;;;;;;;;;;;;21.21;28.78;97081.06;5025287;28;1906;-78
2024/02/10 03:38:10;;;;;;;;;;;;;;;21.38;28.41;97076.75;5007575;28;1235;-78
2024/02/10 03:40:36;;;;;;;;;;;;;;;21.52;28.66;97083.88;5006507;28;1366;-78
2024/02/10 03:43:01;;;;;;;;;;;;;;;21.66;28.41;97083.31;5007308;28;1326;-78
2024/02/10 03:45:33;;;;;;;;;;;;;;;21.72;28.15;97081.44;4972800;28;1237;-78
2024/02/10 03:48:05;;;;;;;;;;;;;;;21.64;28.30;97076.53;5005718;28;903;-78
2024/02/10 03:50:31;;;;;;;;;;;;;;;21.55;28.36;97077.28;4989176;28;1053;-78
2024/02/10 03:52:57;;;;;;;;;;;;;;;21.34;28.76;97073.28;4951806;28;1445;-78
2024/02/10 03:55:23;;;;;;;;;;;;;;;21.22;28.82;97060.78;4968549;28;1990;-78
2024/02/10 03:57:53;;;;;;;;;;;;;;;21.57;28.54;97069.13;4952037;28;934;-78
2024/02/10 04:00:20;;;;;;;;;;;;;;;21.68;28.42;97060.97;4983559;28;1014;-78
2024/02/10 04:02:46;;;;;;;;;;;;;;;21.81;28.06;97055.97;4995727;28;1424;-78
2024/02/10 04:05:11;;;;;;;;;;;;;;;21.42;28.46;97051.94;4972202;28;1584;-78
2024/02/10 04:07:37;;;;;;;;;;;;;;;21.36;28.83;97053.03;4968109;28;1318;-78
2024/02/10 04:10:07;;;;;;;;;;;;;;;21.43;28.31;97055.56;4999121;28;1459;-78
2024/02/10 04:12:32;;;;;;;;;;;;;;;21.39;28.91;97047.19;4972038;28;1172;-78
2024/02/10 04:14:58;;;;;;;;;;;;;;;21.72;28.33;97041.78;5001934;28;927;-79
2024/02/10 04:17:24;;;;;;;;;;;;;;;21.69;28.24;97048.38;4988082;28;1879;-79
2024/02/10 04:19:53;;;;;;;;;;;;;;;21.74;28.26;97050.59;4969322;28;1587;-78
2024/02/10 04:22:22;;;;;;;;;;;;;;;21.30;28.51;97042.31;4987621;28;1128;-78
2024/02/10 04:24:48;;;;;;;;;;;;;;;21.27;28.97;97057.34;5004228;28;881;-78
2024/02/10 04:27:15;;;;;;;;;;;;;;;21.21;28.85;97056.38;4988886;28;1212;-78
2024/02/10 04:29:40;;;;;;;;;;;;;;;21.26;28.63;97050.13;5002425;28;1634;-78
2024/02/10 04:32:07;;;;;;;;;;;;;;;21.60;28.63;97045.53;4988555;28;1117;-79
2024/02/10 04:34:33;;;;;;;;;;;;;;;21.61;28.65;97052.78;4986981;28;1114;-78
2024/02/10 04:36:58;;;;;;;;;;;;;;;21.92;28.20;97051.91;5005391;28;1979;-78
2024/02/10 04:39:24;;;;;;;;;;;;;;;21.53;28.62;97045.84;5003009;28;1436;-78
2024/02/10 04:41:50;;;;;;;;;;;;;;;21.33;28.88;97049.84;5004685;28;939;-79
2024/02/10 04:44:15;;;;;;;;;;;;;;;21.44;28.42;97054.28;4986523;28;984;-78
2024/02/10 04:46:42;;;;;;;;;;;;;;;21.59;28.28;97066.59;4987957;28;949;-78
2024/02/10 04:49:10;;;;;;;;;;;;;;;21.58;28.51;97076.34;5010224;28;1795;-78
2024/02/10 04:51:36;;;;;;;;;;;;;;;21.84;28.19;97085.38;5024301;28;881;-79
2024/02/10 04:54:06;;;;;;;;;;;;;;;21.89;27.92;97089.66;5006394;28;952;-78
2024/02/10 04:56:33;;;;;;;;;;;;;;;21.69;27.99;97088.03;4966810;28;1883;-79
2024/02/10 04:58:59;;;;;;;;;;;;;;;21.59;28.16;97087.19;5003442;28;1541;-78
2024/02/10 05:01:31;;;;;;;;;;;;;;;21.44;28.26;97089.03;5021762;28;939;-79
2024/02/10 05:03:56;;;;;;;;;;;;;;;21.76;28.20;97076.41;4981891;28;982;-79
2024/02/10 05:06:22;;;;;;;;;;;;;;;21.76;28.24;97069.94;4983304;28;1085;-78
2024/02/10 05:08:47;;;;;;;;;;;;;;;21.82;28.18;97071.72;4965045;28;969;-78
2024/02/10 05:11:13;;;;;;;;;;;;;;;21.84;27.98;97080.50;4983280;28;1215;-78
2024/02/10 05:13:39;;;;;;;;;;;;;;;21.68;28.29;97075.13;4980781;28;1060;-78
2024/02/10 05:16:05;;;;;;;;;;;;;;;21.35;28.57;97079.72;4983644;28;1887;-79
2024/02/10 05:18:31;;;;;;;;;;;;;;;21.17;28.74;97075.53;4981355;28;963;-78
2024/02/10 05:20:57;;;;;;;;;;;;;;;21.23;28.78;97079.34;4983417;28;970;-78
2024/02/10 05:23:22;;;;;;;;;;;;;;;21.74;28.31;97064.75;4961037;29;956;-78
2024/02/10 05:25:48;;;;;;;;;;;;;;;21.62;28.37;97082.66;4948515;28;938;-78
2024/02/10 05:28:15;;;;;;;;;;;;;;;21.68;28.14;97080.78;4977373;28;1058;-78
2024/02/10 05:30:40;;;;;;;;;;;;;;;21.40;28.60;97087.59;4967319;28;956;-78
2024/02/10 05:33:06;;;;;;;;;;;;;;;21.42;28.51;97071.75;4964865;28;787;-78
2024/02/10 05:35:31;;;;;;;;;;;;;;;21.43;28.38;97070.47;4993982;28;1983;-78
2024/02/10 05:37:57;;;;;;;;;;;;;;;21.41;28.77;97080.72;5040635;28;975;-79
2024/02/10 05:40:23;;;;;;;;;;;;;;;21.43;28.74;97078.19;5007558;28;1190;-78
2024/02/10 05:42:52;;;;;;;;;;;;;;;21.76;28.19;97092.59;5023970;28;882;-78
2024/02/10 05:45:18;;;;;;;;;;;;;;;21.79;28.17;97089.63;5024193;28;865;-79
2024/02/10 05:47:44;;;;;;;;;;;;;;;21.66;28.16;97108.78;5041418;28;993;-78
2024/02/10 05:50:12;;;;;;;;;;;;;;;21.27;28.66;97108.28;5023050;28;1020;-79
2024/02/10 05:52:47;;;;;;;;;;;;;;;21.42;28.67;97116.25;5007551;28;1120;-78
2024/02/10 05:55:13;;;;;;;;;;;;;;;21.51;28.19;97121.94;5023068;28;956;-78
2024/02/10 05:57:39;;;;;;;;;;;;;;;21.56;28.53;97124.16;5024364;28;1887;-78
2024/02/10 06:00:09;;;;;;;;;;;;;;;21.71;28.29;97119.50;5008520;28;918;-78
2024/02/10 06:02:38;;;;;;;;;;;;;;;21.75;28.06;97120.13;5025606;28;898;-78
2024/02/10 06:05:05;;;;;;;;;;;;;;;21.65;28.30;97103.56;5040329;28;905;-79
2024/02/10 06:07:35;;;;;;;;;;;;;;;21.71;28.07;97113.84;5026603;28;910;-78
2024/02/10 06:10:01;;;;;;;;;;;;;;;21.14;28.68;97118.91;5028683;28;1437;-78
2024/02/10 06:12:27;;;;;;;;;;;;;;;21.38;28.83;97115.59;5046577;28;868;-78
2024/02/10 06:14:52;;;;;;;;;;;;;;;21.63;28.50;97117.41;5044940;28;1004;-78
2024/02/10 06:17:23;;;;;;;;;;;;;;;21.59;28.63;97123.22;5046492;28;1902;-78
2024/02/10 06:19:50;;;;;;;;;;;;;;;21.69;28.16;97116.34;5045642;28;930;-78
2024/02/10 06:22:18;;;;;;;;;;;;;;;21.52;28.73;97117.84;5046484;28;887;-78
2024/02/10 06:24:44;;;;;;;;;;;;;;;21.41;28.51;97118.28;5004796;28;990;-78
2024/02/10 06:27:09;;;;;;;;;;;;;;;21.52;28.42;97103.69;4990077;28;1273;-78
2024/02/10 06:29:35;;;;;;;;;;;;;;;21.65;28.35;97114.91;5004125;28;937;-78
2024/02/10 06:32:05;;;;;;;;;;;;;;;21.50;28.55;97123.19;5005112;28;993;-78
2024/02/10 06:34:31;;;;;;;;;;;;;;;21.73;28.25;97133.97;4987684;28;988;-78
2024/02/10 06:36:57;;;;;;;;;;;;;;;21.49;28.65;97135.75;5006099;28;1882;-79
2024/02/10 06:39:23;;;;;;;;;;;;;;;21.13;29.02;97137.13;5004736;28;1027;-78
2024/02/10 06:41:50;;;;;;;;;;;;;;;21.45;28.32;97140.75;4988532;28;979;-79
2024/02/10 06:44:16;;;;;;;;;;;;;;;21.62;28.36;97138.50;5003741;28;1084;-78
2024/02/10 06:46:41;;;;;;;;;;;;;;;21.72;28.23;97132.41;4989721;28;892;-78
2024/02/10 06:49:07;;;;;;;;;;;;;;;21.85;28.21;97126.59;4987277;28;1309;-78
2024/02/10 06:51:32;;;;;;;;;;;;;;;21.77;28.19;97125.34;5005219;28;985;-78
2024/02/10 06:53:58;;;;;;;;;;;;;;;21.56;28.48;97132.66;5003346;28;1161;-78
2024/02/10 06:56:24;;;;;;;;;;;;;;;21.59;28.48;97134.53;5032717;28;1984;-78
2024/02/10 06:58:50;;;;;;;;;;;;;;;21.67;28.14;97135.84;5043391;28;958;-78
2024/02/10 07:01:17;;;;;;;;;;;;;;;21.52;28.68;97138.44;5045501;28;922;-78
2024/02/10 07:03:45;;;;;;;;;;;;;;;21.72;28.56;97143.72;5026576;28;1027;-78
2024/02/10 07:06:17;;;;;;;;;;;;;;;21.97;28.05;97136.25;5045633;28;895;-78
2024/02/10 07:08:43;;;;;;;;;;;;;;;21.87;28.14;97141.09;5043346;28;941;-78
2024/02/10 07:11:09;;;;;;;;;;;;;;;21.63;28.33;97145.72;5045514;28;1016;-78
2024/02/10 07:13:36;;;;;;;;;;;;;;;21.63;28.42;97145.72;5044216;28;1063;-78
2024/02/10 07:16:05;;;;;;;;;;;;;;;21.64;28.62;97136.75;5046994;28;1967;-78
2024/02/10 07:18:31;;;;;;;;;;;;;;;21.83;28.45;97121.41;5042419;28;1042;-78
2024/02/10 07:20:59;;;;;;;;;;;;;;;22.02;28.24;97141.28;5047262;28;986;-78
2024/02/10 07:23:26;;;;;;;;;;;;;;;21.87;28.20;97148.81;5043259;28;901;-78
2024/02/10 07:25:52;;;;;;;;;;;;;;;21.47;28.85;97143.94;5028584;28;1181;-78
2024/02/10 07:28:21;;;;;;;;;;;;;;;21.64;28.23;97150.13;5042654;28;1199;-78
2024/02/10 07:30:51;;;;;;;;;;;;;;;21.51;28.51;97153.06;5045717;28;960;-78
2024/02/10 07:33:17;;;;;;;;;;;;;;;21.62;28.54;97150.59;5043190;28;961;-78
2024/02/10 07:35:43;;;;;;;;;;;;;;;21.70;28.70;97157.53;5045063;28;1883;-78
2024/02/10 07:38:08;;;;;;;;;;;;;;;21.66;28.91;97156.91;5043782;28;941;-79
2024/02/10 07:40:35;;;;;;;;;;;;;;;21.40;29.06;97169.66;5044038;28;971;-78
2024/02/10 07:43:00;;;;;;;;;;;;;;;21.44;28.63;97167.50;5005847;28;1677;-78
2024/02/10 07:45:26;;;;;;;;;;;;;;;21.20;29.02;97182.13;4990394;28;1109;-78
2024/02/10 07:47:55;;;;;;;;;;;;;;;21.32;29.16;97178.44;5006160;28;1001;-78
2024/02/10 07:50:21;;;;;;;;;;;;;;;21.56;28.86;97180.78;5006232;28;1152;-78
2024/02/10 07:52:49;;;;;;;;;;;;;;;21.67;28.69;97163.38;5022576;28;951;-78
2024/02/10 07:55:15;;;;;;;;;;;;;;;21.64;28.98;97169.94;5005963;28;889;-78
2024/02/10 07:57:41;;;;;;;;;;;;;;;21.66;28.91;97156.91;5023439;28;1977;-78
2024/02/10 08:00:09;;;;;;;;;;;;;;;21.68;28.77;97168.56;5005558;28;1124;-78
2024/02/10 08:02:35;;;;;;;;;;;;;;;21.76;28.51;97167.03;4990765;28;1040;-78
2024/02/10 08:05:01;;;;;;;;;;;;;;;21.54;29.04;97169.91;5004753;28;950;-78
2024/02/10 08:07:29;;;;;;;;;;;;;;;21.77;28.47;97179.13;5006781;28;1203;-78
2024/02/10 08:09:55;;;;;;;;;;;;;;;21.95;28.57;97175.56;5021787;28;1156;-78
2024/02/10 08:12:23;;;;;;;;;;;;;;;21.91;28.40;97189.88;5006495;28;947;-78
2024/02/10 08:14:52;;;;;;;;;;;;;;;21.76;28.68;97184.00;5040045;28;844;-78
2024/02/10 08:17:20;;;;;;;;;;;;;;;21.53;28.67;97187.34;5003025;28;1906;-78
2024/02/10 08:19:51;;;;;;;;;;;;;;;21.44;29.00;97195.78;4985402;28;972;-78
2024/02/10 08:22:21;;;;;;;;;;;;;;;21.42;29.31;97203.97;5004009;28;1011;-78
2024/02/10 08:24:47;;;;;;;;;;;;;;;21.46;29.37;97193.31;4985292;28;1255;-78
2024/02/10 08:27:15;;;;;;;;;;;;;;;21.70;28.89;97191.50;4987009;28;1061;-78
2024/02/10 08:29:42;;;;;;;;;;;;;;;21.79;28.61;97193.59;5001225;28;1055;-78
2024/02/10 08:32:11;;;;;;;;;;;;;;;21.58;28.87;97189.59;5003179;28;926;-77
2024/02/10 08:34:38;;;;;;;;;;;;;;;21.30;29.53;97192.28;4985071;28;1266;-78
2024/02/10 08:37:04;;;;;;;;;;;;;;;21.38;29.20;97192.00;4970004;28;1891;-78
2024/02/10 08:39:30;;;;;;;;;;;;;;;21.52;28.80;97194.28;5001570;28;1307;-78
2024/02/10 08:41:55;;;;;;;;;;;;;;;21.60;28.91;97204.06;5003226;28;927;-78
2024/02/10 08:44:21;;;;;;;;;;;;;;;21.62;29.13;97207.22;5001334;28;923;-78
2024/02/10 08:46:47;;;;;;;;;;;;;;;21.66;28.75;97207.88;5003423;28;918;-78
2024/02/10 08:49:14;;;;;;;;;;;;;;;21.44;29.29;97212.78;5021502;28;1401;-79
2024/02/10 08:51:54;;;;;;;;;;;;;;;21.47;28.82;97209.03;5042528;28;1132;-78
2024/02/10 08:54:19;;;;;;;;;;;;;;;21.57;28.94;97213.50;5042124;28;965;-78
2024/02/10 08:56:45;;;;;;;;;;;;;;;21.79;28.91;97217.03;5042669;28;1960;-78
2024/02/10 08:59:12;;;;;;;;;;;;;;;21.61;28.83;97211.31;5041514;28;1239;-78
2024/02/10 09:01:43;;;;;;;;;;;;;;;21.88;28.58;97209.84;5043187;28;961;-78
2024/02/10 09:04:09;;;;;;;;;;;;;;;21.68;28.81;97199.69;5041558;28;965;-78
2024/02/10 09:06:35;;;;;;;;;;;;;;;21.47;29.20;97209.81;5043201;28;1203;-78
2024/02/10 09:09:01;;;;;;;;;;;;;;;21.29;29.05;97201.97;5001322;28;1133;-78
2024/02/10 09:11:27;;;;;;;;;;;;;;;21.50;28.90;97205.25;4986595;28;1480;-78
2024/02/10 09:13:53;;;;;;;;;;;;;;;21.46;29.04;97187.66;5001231;28;938;-78
2024/02/10 09:16:18;;;;;;;;;;;;;;;21.89;28.76;97186.72;5003181;28;1883;-78
2024/02/10 09:18:45;;;;;;;;;;;;;;;21.75;28.61;97187.28;5000635;28;1130;-78
2024/02/10 09:21:19;;;;;;;;;;;;;;;21.62;28.77;97184.56;5002146;28;991;-78
2024/02/10 09:23:46;;;;;;;;;;;;;;;21.76;28.54;97189.69;4984062;28;997;-78
2024/02/10 09:26:15;;;;;;;;;;;;;;;21.52;29.22;97185.78;5002470;28;973;-78
2024/02/10 09:28:41;;;;;;;;;;;;;;;21.65;28.96;97189.28;5000052;28;1152;-78
2024/02/10 09:31:13;;;;;;;;;;;;;;;21.75;28.66;97193.75;5002318;28;1000;-78
2024/02/10 09:33:39;;;;;;;;;;;;;;;21.54;28.93;97181.22;4999672;28;1002;-78
2024/02/10 09:36:08;;;;;;;;;;;;;;;21.42;29.06;97175.66;5001838;28;1958;-77
2024/02/10 09:38:34;;;;;;;;;;;;;;;21.42;28.93;97181.34;4980059;28;958;-78
2024/02/10 09:41:00;;;;;;;;;;;;;;;21.44;29.31;97192.97;4984206;28;956;-78
2024/02/10 09:43:34;;;;;;;;;;;;;;;21.85;28.50;97175.53;4966773;28;1020;-78
2024/02/10 09:46:06;;;;;;;;;;;;;;;21.92;28.67;97173.69;4970690;28;1126;-78
2024/02/10 09:48:41;;;;;;;;;;;;;;;21.96;28.40;97175.09;4967166;28;1087;-78
2024/02/10 09:51:07;;;;;;;;;;;;;;;21.72;28.75;97165.59;4985309;28;1025;-78
2024/02/10 09:53:33;;;;;;;;;;;;;;;21.64;28.98;97169.94;4999100;28;947;-78
2024/02/10 09:55:58;;;;;;;;;;;;;;;21.37;29.33;97164.94;4969638;28;1907;-78
2024/02/10 09:58:27;;;;;;;;;;;;;;;21.51;29.08;97167.22;4983416;28;989;-78
2024/02/10 10:00:53;;;;;;;;;;;;;;;21.66;29.15;97168.25;4985577;28;964;-78
2024/02/10 10:03:19;;;;;;;;;;;;;;;21.70;28.92;97156.75;4999406;28;896;-78
2024/02/10 10:05:45;;;;;;;;;;;;;;;21.81;28.78;97157.09;4969384;28;1021;-79
2024/02/10 10:08:11;;;;;;;;;;;;;;;21.49;29.44;97155.56;4983444;28;1071;-78
2024/02/10 10:10:37;;;;;;;;;;;;;;;21.78;28.80;97158.84;5001308;28;821;-78
2024/02/10 10:13:05;;;;;;;;;;;;;;;21.44;29.33;97144.84;5000091;28;1008;-78
2024/02/10 10:15:31;;;;;;;;;;;;;;;21.69;28.95;97144.66;5001713;28;1964;-79
2024/02/10 10:17:56;;;;;;;;;;;;;;;21.51;29.49;97148.19;5023790;28;1130;-79
2024/02/10 10:20:23;;;;;;;;;;;;;;;21.88;28.80;97161.72;5041033;28;798;-78
2024/02/10 10:22:50;;;;;;;;;;;;;;;21.89;28.90;97141.41;5025048;28;887;-78
2024/02/10 10:25:15;;;;;;;;;;;;;;;21.50;29.18;97143.00;5040876;28;970;-78
2024/02/10 10:27:46;;;;;;;;;;;;;;;21.35;29.58;97142.78;5040762;28;1151;-79
2024/02/10 10:30:12;;;;;;;;;;;;;;;21.72;28.96;97126.72;5023043;28;1163;-79
2024/02/10 10:32:39;;;;;;;;;;;;;;;21.49;29.44;97147.84;5024407;28;1237;-78
2024/02/10 10:35:05;;;;;;;;;;;;;;;21.70;29.03;97140.56;5041364;28;1144;-79
2024/02/10 10:37:32;;;;;;;;;;;;;;;21.71;29.10;97138.50;5041428;28;1891;-79
2024/02/10 10:39:57;;;;;;;;;;;;;;;21.77;28.94;97134.63;5023408;28;931;-79
2024/02/10 10:42:23;;;;;;;;;;;;;;;21.77;29.07;97145.16;5041517;28;919;-79
2024/02/10 10:44:50;;;;;;;;;;;;;;;21.73;28.86;97139.63;5039259;28;897;-78
2024/02/10 10:47:22;;;;;;;;;;;;;;;21.64;28.92;97142.41;5041526;28;932;-78
2024/02/10 10:49:48;;;;;;;;;;;;;;;21.42;29.53;97136.03;5023607;28;912;-78
2024/02/10 10:52:20;;;;;;;;;;;;;;;21.31;29.51;97125.94;5041702;28;936;-78
2024/02/10 10:54:47;;;;;;;;;;;;;;;21.65;29.44;97121.34;5042774;28;1023;-79
2024/02/10 10:57:17;;;;;;;;;;;;;;;21.46;29.54;97114.84;5028724;28;1954;-79
2024/02/10 10:59:43;;;;;;;;;;;;;;;21.66;29.00;97117.28;5043201;28;1085;-79
2024/02/10 11:02:12;;;;;;;;;;;;;;;21.42;29.47;97107.75;5045194;28;959;-79
2024/02/10 11:04:38;;;;;;;;;;;;;;;21.08;29.92;97106.59;5043060;28;959;-78
2024/02/10 11:07:08;;;;;;;;;;;;;;;21.52;29.14;97104.50;5045642;28;1136;-78
2024/02/10 11:09:43;;;;;;;;;;;;;;;21.53;29.33;97105.28;5042967;28;715;-79
2024/02/10 11:12:15;;;;;;;;;;;;;;;21.71;28.94;97113.84;5045035;28;795;-79
2024/02/10 11:14:51;;;;;;;;;;;;;;;21.75;29.08;97108.00;5027060;28;719;-79
2024/02/10 11:17:17;;;;;;;;;;;;;;;21.81;29.10;97112.63;5045517;28;1914;-79
2024/02/10 11:19:42;;;;;;;;;;;;;;;21.66;29.24;97122.94;5025402;28;869;-78
2024/02/10 11:22:10;;;;;;;;;;;;;;;21.49;29.37;97124.44;5045292;28;750;-79
2024/02/10 11:24:35;;;;;;;;;;;;;;;21.63;29.16;97129.53;5043275;28;826;-78
2024/02/10 11:27:01;;;;;;;;;;;;;;;21.61;29.17;97134.09;5044578;28;1008;-79
2024/02/10 11:29:26;;;;;;;;;;;;;;;21.73;29.14;97133.19;5022158;28;969;-78
2024/02/10 11:31:52;;;;;;;;;;;;;;;21.98;28.83;97118.78;5007331;28;979;-78
2024/02/10 11:34:17;;;;;;;;;;;;;;;21.69;29.00;97122.00;4989185;28;949;-79
2024/02/10 11:36:48;;;;;;;;;;;;;;;21.78;28.91;97119.19;5007132;28;1899;-79
2024/02/10 11:39:14;;;;;;;;;;;;;;;21.46;29.59;97125.38;5006453;28;804;-79
2024/02/10 11:41:39;;;;;;;;;;;;;;;21.65;29.07;97131.88;5006912;28;753;-79
2024/02/10 11:44:08;;;;;;;;;;;;;;;21.84;28.91;97134.31;5005410;28;897;-79
2024/02/10 11:46:34;;;;;;;;;;;;;;;21.97;28.80;97130.59;5007408;28;751;-79
2024/02/10 11:49:00;;;;;;;;;;;;;;;21.50;29.46;97143.00;5005181;28;838;-79
2024/02/10 11:51:28;;;;;;;;;;;;;;;21.38;29.70;97132.56;5006218;28;808;-79
2024/02/10 11:53:57;;;;;;;;;;;;;;;21.42;29.47;97130.38;5005519;28;1620;-79
2024/02/10 11:56:28;;;;;;;;;;;;;;;21.39;29.41;97125.66;4990723;28;1914;-78
2024/02/10 11:58:59;;;;;;;;;;;;;;;21.72;29.14;97118.25;4989215;28;1323;-79
2024/02/10 12:01:25;;;;;;;;;;;;;;;21.77;28.92;97120.47;5024213;28;1750;-78
2024/02/10 12:03:51;;;;;;;;;;;;;;;21.73;29.26;97122.66;5026163;28;1572;-79
2024/02/10 12:06:20;;;;;;;;;;;;;;;21.71;28.96;97111.00;5043105;28;1571;-78
2024/02/10 12:08:46;;;;;;;;;;;;;;;21.60;29.21;97113.47;5042971;28;832;-79
2024/02/10 12:11:11;;;;;;;;;;;;;;;21.43;29.29;97114.97;5010460;28;927;-78
2024/02/10 12:13:40;;;;;;;;;;;;;;;21.39;29.37;97120.00;5041692;28;778;-79
2024/02/10 12:16:10;;;;;;;;;;;;;;;21.42;29.63;97108.53;5023109;28;1910;-78
2024/02/10 12:18:37;;;;;;;;;;;;;;;21.71;29.16;97113.84;5004106;28;969;-79
2024/02/10 12:21:04;;;;;;;;;;;;;;;21.91;28.90;97121.09;5007205;28;746;-78
2024/02/10 12:23:30;;;;;;;;;;;;;;;21.76;28.95;97116.06;5003968;28;941;-78
2024/02/10 12:25:56;;;;;;;;;;;;;;;21.80;28.98;97113.84;4984500;28;960;-78
2024/02/10 12:28:22;;;;;;;;;;;;;;;21.83;28.76;97117.81;4980778;28;1076;-79
2024/02/10 12:30:48;;;;;;;;;;;;;;;21.68;29.23;97120.44;4983958;28;938;-78
2024/02/10 12:33:16;;;;;;;;;;;;;;;21.48;29.23;97122.88;4965642;28;1171;-78
2024/02/10 12:35:45;;;;;;;;;;;;;;;21.70;28.98;97115.06;4983179;28;1979;-79
2024/02/10 12:38:12;;;;;;;;;;;;;;;21.40;29.60;97110.25;4981835;28;983;-79
2024/02/10 12:40:37;;;;;;;;;;;;;;;21.65;29.34;97115.69;4983236;28;970;-79
2024/02/10 12:43:04;;;;;;;;;;;;;;;21.77;29.24;97117.63;4982362;28;1067;-78
2024/02/10 12:45:29;;;;;;;;;;;;;;;21.56;29.16;97115.69;4983188;28;1054;-79
2024/02/10 12:47:55;;;;;;;;;;;;;;;21.14;29.90;97121.75;4985648;28;1014;-78
2024/02/10 12:50:21;;;;;;;;;;;;;;;21.40;29.59;97124.38;4985020;28;1168;-79
2024/02/10 12:52:47;;;;;;;;;;;;;;;21.41;29.40;97123.94;4947184;29;974;-78
2024/02/10 12:55:13;;;;;;;;;;;;;;;21.73;29.12;97124.69;4924775;29;971;-79
2024/02/10 12:57:39;;;;;;;;;;;;;;;21.84;28.98;97122.97;4944088;29;1907;-79
2024/02/10 13:00:18;;;;;;;;;;;;;;;21.95;28.67;97124.59;4930492;29;1042;-78
2024/02/10 13:02:46;;;;;;;;;;;;;;;21.75;28.80;97133.50;4948688;29;995;-79